• Join FlightAware (Why Join?)
  • Login
  • US Flag 
10:56AM EDT


 

Airport Tracker/Info


-or-


 

Live Flight TrackerFlight Track Log ✈ SKQ45 ✈ 20-Apr-2013 ✈ KOSU - KBUY

Flight Track Log - Related Links

Times and Time Zones

All times are in EDT time to prevent confusion due to time zone crossing. See the SKQ45 flight status page for this flight to view local times or setup timezone preferences in your user account.

Time Position Orientation Groundspeed Altitude Reporting Facility
EDT Latitude Longitude Course Direction KTS MPH feet Rate Location/Type
01:29AM 40.0331 -83.0681 148° Southeast 155 178 3,800  Level Indianapolis Center
01:29AM 40.0153 -83.0614 164° South 146 168 4,700 1,860 Climbing Indianapolis Center
01:30AM 39.9922 -83.0469 154° Southeast 155 178 5,700 1,800 Climbing Indianapolis Center
01:31AM 39.9500 -83.0119 148° Southeast 171 197 7,700 1,920 Climbing Indianapolis Center
01:32AM 39.9094 -82.9700 142° Southeast 184 212 9,600 1,740 Climbing Indianapolis Center
01:33AM 39.8669 -82.9292 144° Southeast 188 216 11,300 1,680 Climbing Indianapolis Center
01:34AM 39.8244 -82.8869 143° Southeast 189 217 13,100 1,620 Climbing Indianapolis Center
01:35AM 39.7819 -82.8461 144° Southeast 188 216 14,600 1,680 Climbing Indianapolis Center
01:36AM 39.7367 -82.8039 144° Southeast 198 228 16,600 1,740 Climbing Indianapolis Center
01:37AM 39.6961 -82.7644 143° Southeast 184 212 18,200 1,140 Climbing Indianapolis Center
01:38AM 39.6544 -82.7253 144° Southeast 182 209 19,000 300 Climbing Indianapolis Center
01:39AM 39.6008 -82.6753 144° Southeast 222 255 18,900  Descending Indianapolis Center
01:40AM 39.5453 -82.6211 143° Southeast 242 278 19,000  Climbing Indianapolis Center
01:41AM 39.4903 -82.5681 143° Southeast 244 281 19,000  Level Indianapolis Center
01:42AM 39.4347 -82.5153 144° Southeast 244 281 19,000  Level Indianapolis Center
01:43AM 39.3814 -82.4631 143° Southeast 243 280 19,000  Level Indianapolis Center
01:44AM 39.3267 -82.4117 144° Southeast 242 278 19,000  Level Indianapolis Center
01:45AM 39.2731 -82.3606 144° Southeast 241 277 19,000  Level Indianapolis Center
01:46AM 39.2183 -82.3086 144° Southeast 242 278 19,000  Level Indianapolis Center
01:47AM 39.1642 -82.2581 144° Southeast 242 278 19,000  Level Indianapolis Center
01:48AM 39.1100 -82.2069 144° Southeast 242 278 19,000  Level Indianapolis Center
01:49AM 39.0558 -82.1558 144° Southeast 242 278 19,000  Level Indianapolis Center
01:50AM 39.0017 -82.1061 144° Southeast 240 276 19,000  Level Indianapolis Center
01:51AM 38.9478 -82.0542 143° Southeast 242 278 19,000  Level Indianapolis Center
01:52AM 38.8922 -82.0025 144° Southeast 245 282 19,000  Level Indianapolis Center
01:53AM 38.8378 -81.9522 144° Southeast 243 280 19,000  Level Indianapolis Center
01:54AM 38.7831 -81.9003 143° Southeast 244 281 19,000  Level Indianapolis Center
01:55AM 38.7281 -81.8500 145° Southeast 244 281 19,000  Level Indianapolis Center
01:56AM 38.6736 -81.7983 143° Southeast 245 282 19,000  Level Indianapolis Center
01:57AM 38.6189 -81.7492 145° Southeast 243 280 19,000  Level Indianapolis Center
01:58AM 38.5639 -81.6989 144° Southeast 245 282 19,000  Level Indianapolis Center
01:59AM 38.5092 -81.6481 144° Southeast 246 283 19,000  Level Indianapolis Center
02:00AM 38.4542 -81.5961 144° Southeast 247 284 19,000  Level Indianapolis Center
02:01AM 38.3972 -81.5458 145° Southeast 247 284 19,000  Level Indianapolis Center
02:02AM 38.3417 -81.4942 144° Southeast 248 285 19,000  Level Indianapolis Center
02:03AM 38.2850 -81.4425 144° Southeast 249 287 19,000  Level Indianapolis Center
02:04AM 38.2289 -81.3919 145° Southeast 248 285 19,000  Level Indianapolis Center
02:05AM 38.1725 -81.3411 145° Southeast 249 287 19,000  Level Indianapolis Center
02:06AM 38.1164 -81.2894 144° Southeast 250 288 19,000  Level Indianapolis Center
02:07AM 38.0592 -81.2375 144° Southeast 252 290 19,000  Level Indianapolis Center
02:08AM 38.0017 -81.1858 145° Southeast 254 292 19,000  Level Indianapolis Center
02:09AM 37.9444 -81.1350 145° Southeast 251 289 19,000  Level Indianapolis Center
02:10AM 37.8867 -81.0817 144° Southeast 255 293 19,000  Level Indianapolis Center
02:11AM 37.8486 -81.0542 150° Southeast 265 305 19,000  Level Washington Center
02:12AM 37.7844 -80.9944 144° Southeast 259 298 19,000  Level Washington Center
02:13AM 37.7331 -80.9303 135° Southeast 259 298 19,000  Level Washington Center
02:14AM 37.6819 -80.8636 134° Southeast 259 298 19,000  Level Washington Center
02:15AM 37.6281 -80.8050 139° Southeast 259 298 19,000  Level Washington Center
02:16AM 37.5756 -80.7647 149° Southeast 248 285 19,000  Level Washington Center
02:17AM 37.5172 -80.7161 147° Southeast 248 285 19,000  Level Washington Center
02:18AM 37.4608 -80.6678 146° Southeast 248 285 19,000  Level Washington Center
02:19AM 37.4047 -80.6169 144° Southeast 248 285 19,000  Level Washington Center
02:20AM 37.3422 -80.5633 146° Southeast 248 285 19,000  Level Washington Center
02:21AM 37.2836 -80.5150 147° Southeast 248 285 19,000  Level Washington Center
02:22AM 37.2292 -80.4697 146° Southeast 248 285 19,000  Level Washington Center
02:23AM 37.1728 -80.4192 144° Southeast 248 285 19,000  Level Washington Center
02:24AM 37.1225 -80.3769 146° Southeast 248 285 19,000 -240 Level Washington Center
02:25AM 37.0658 -80.3292 146° Southeast 248 285 18,600 -660 Descending Washington Center
02:26AM 37.0053 -80.2786 146° Southeast 248 285 17,700 -900 Descending Washington Center
02:27AM 36.9428 -80.2256 146° Southeast 253 291 16,900 -840 Descending Washington Center
02:29AM 36.8478 -80.1488 147° Southeast  Level FlightAware Approximate
02:36AM 36.4749 -79.8307 144° Southeast  Level FlightAware Approximate
02:37AM 36.4226 -79.7836 144° Southeast  Level FlightAware Approximate
02:38AM 36.3702 -79.7365 144° Southeast  Level FlightAware Approximate
02:39AM 36.3151 -79.6946 149° Southeast  Level FlightAware Approximate
02:40AM 36.2598 -79.6532 149° Southeast  Level FlightAware Approximate
02:41AM 36.2062 -79.6088 149° Southeast  Level FlightAware Approximate
02:42AM 36.1509 -79.5673 149° Southeast  Level FlightAware Approximate
02:43AM 36.1005 -79.5172 141° Southeast  Level FlightAware Approximate